Time;durP1;ratioP1;P1;durP2;ratioP2;P2;SDS_P1;SDS_P2;PMS_P1;PMS_P2;Temp;Humidity;BMP_temperature;BMP_pressure;BME280_temperature;BME280_humidity;BME280_pressure;Samples;Min_cycle;Max_cycle;Signal;HPM_P1;HPM_P2
2022/11/22 00:00:27;;;;;;;15.05;6.00;;;;;;;-143.48;93.82;77639.38;5052765;28;20063;-34
2022/11/22 00:02:53;;;;;;;17.77;5.90;;;;;;;-143.48;94.04;77629.47;5053121;28;20055;-34
2022/11/22 00:05:18;;;;;;;14.68;5.72;;;;;;;-143.48;94.00;77629.47;5053158;28;20029;-34
2022/11/22 00:07:44;;;;;;;12.32;6.00;;;;;;;-143.48;94.34;77623.50;5052752;28;20028;-33
2022/11/22 00:10:11;;;;;;;14.45;6.60;;;;;;;-143.48;94.23;77635.41;5051328;28;20048;-33
2022/11/22 00:12:37;;;;;;;15.77;6.35;;;;;;;-143.48;94.02;77619.56;5052578;28;20498;-34
2022/11/22 00:15:03;;;;;;;14.10;6.00;;;;;;;-143.48;94.44;77623.50;5052735;28;20100;-33
2022/11/22 00:17:30;;;;;;;16.73;6.45;;;;;;;-143.48;94.45;77625.50;5053172;28;20035;-33
2022/11/22 00:19:55;;;;;;;12.77;6.15;;;;;;;-143.48;94.59;77617.56;5015438;28;1066186;-33
2022/11/22 00:22:21;;;;;;;14.45;6.15;;;;;;;-143.48;94.16;77613.59;5053590;28;20043;-34
2022/11/22 00:24:46;;;;;;;12.77;5.82;;;;;;;-143.48;93.97;77623.50;5053530;28;20058;-34
2022/11/22 00:27:11;;;;;;;13.70;6.10;;;;;;;-143.48;94.13;77615.59;5053322;28;20036;-33
2022/11/22 00:29:40;;;;;;;13.05;5.72;;;;;;;-143.48;94.15;77605.66;5053292;28;20017;-34
2022/11/22 00:32:05;;;;;;;18.42;6.25;;;;;;;-143.48;93.74;77599.72;5053830;28;20475;-33
2022/11/22 00:34:30;;;;;;;14.20;6.25;;;;;;;-143.48;94.08;77591.78;5053453;28;20025;-33
2022/11/22 00:36:55;;;;;;;17.58;6.45;;;;;;;-143.48;94.04;77603.69;5053185;28;20071;-33
2022/11/22 00:39:21;;;;;;;16.27;6.43;;;;;;;-143.48;94.43;77605.66;5053361;28;20032;-33
2022/11/22 00:41:46;;;;;;;15.48;6.28;;;;;;;-143.48;94.72;77619.56;5052962;28;20521;-33
2022/11/22 00:44:11;;;;;;;15.38;6.45;;;;;;;-143.48;94.58;77611.63;5053371;28;20020;-33
2022/11/22 00:46:36;;;;;;;12.00;6.47;;;;;;;-143.48;94.38;77605.66;5052978;28;20083;-33
2022/11/22 00:49:02;;;;;;;12.93;6.03;;;;;;;-143.48;94.82;77601.72;5053288;28;20060;-34
2022/11/22 00:51:28;;;;;;;12.60;6.72;;;;;;;-143.48;94.80;77607.66;5053297;28;20029;-34
2022/11/22 00:53:53;;;;;;;13.55;6.90;;;;;;;-143.48;94.62;77611.63;5035021;28;20415;-33
2022/11/22 00:56:18;;;;;;;18.35;6.65;;;;;;;-143.48;95.13;77615.59;5053249;28;20029;-34
2022/11/22 00:58:44;;;;;;;15.23;6.28;;;;;;;-143.48;94.90;77613.59;5053429;28;20025;-33
2022/11/22 01:01:09;;;;;;;17.80;6.15;;;;;;;-143.48;94.59;77617.56;5053153;28;20021;-35
2022/11/22 01:03:34;;;;;;;11.50;6.00;;;;;;;-143.48;94.61;77615.59;5052735;28;20021;-34
2022/11/22 01:05:59;;;;;;;15.23;6.38;;;;;;;-143.48;94.85;77621.53;5053223;28;20032;-33
2022/11/22 01:08:25;;;;;;;17.10;6.50;;;;;;;-143.48;94.58;77627.47;5052813;28;20388;-34
2022/11/22 01:10:57;;;;;;;11.45;5.72;;;;;;;-143.48;94.67;77627.47;5052860;28;20037;-34
2022/11/22 01:13:24;;;;;;;15.20;6.97;;;;;;;-143.48;94.79;77633.44;5053347;28;20033;-34
2022/11/22 01:15:49;;;;;;;14.88;6.30;;;;;;;-143.48;95.00;77627.47;5035166;28;20079;-34
2022/11/22 01:18:14;;;;;;;16.80;6.50;;;;;;;-143.48;95.18;77625.50;5052609;28;20411;-33
2022/11/22 01:20:40;;;;;;;14.13;6.97;;;;;;;-143.48;95.36;77621.53;5035111;28;20523;-33
2022/11/22 01:23:05;;;;;;;12.35;6.07;;;;;;;-143.48;95.13;77619.56;5055505;28;20464;-33
2022/11/22 01:25:30;;;;;;;17.42;7.25;;;;;;;-143.48;95.41;77623.50;5056871;28;20468;-33
2022/11/22 01:27:56;;;;;;;13.23;6.57;;;;;;;-143.48;95.16;77623.50;5056513;28;20025;-33
2022/11/22 01:30:21;;;;;;;15.68;6.25;;;;;;;-143.48;95.34;77613.59;5038496;28;20032;-33
2022/11/22 01:32:46;;;;;;;17.23;6.32;;;;;;;-143.48;95.00;77611.63;5056751;28;20124;-33
2022/11/22 01:35:12;;;;;;;13.70;6.22;;;;;;;-143.48;95.10;77603.69;5056739;28;20060;-33
2022/11/22 01:37:37;;;;;;;20.52;6.25;;;;;;;-143.48;94.58;77607.66;5056409;28;20032;-34
2022/11/22 01:40:04;;;;;;;16.92;6.25;;;;;;;-143.48;94.80;77611.63;5056448;28;20021;-33
2022/11/22 01:42:59;;;;;;;13.60;6.13;;;;;;;-143.48;94.52;77601.72;5038568;28;20060;-33
2022/11/22 01:45:33;;;;;;;13.98;6.20;;;;;;;-143.48;94.57;77611.63;5044233;28;20037;-34
2022/11/22 01:48:06;;;;;;;17.27;6.07;;;;;;;-143.48;94.51;77607.66;5038253;28;20041;-34
2022/11/22 01:50:36;;;;;;;11.68;5.82;;;;;;;-143.48;94.48;77617.56;5056104;28;20025;-33
2022/11/22 01:53:08;;;;;;;16.02;6.25;;;;;;;-143.48;94.99;77625.50;5056341;28;20025;-34
2022/11/22 01:55:34;;;;;;;15.90;6.18;;;;;;;-143.48;95.15;77627.47;5056269;28;20424;-33
2022/11/22 01:58:01;;;;;;;16.08;6.10;;;;;;;-143.48;95.46;77637.41;5056281;28;20112;-34
2022/11/22 02:00:26;;;;;;;15.88;6.43;;;;;;;-143.48;95.50;77647.31;5056387;28;20033;-34
2022/11/22 02:02:57;;;;;;;13.98;6.07;;;;;;;-143.48;95.49;77643.34;5056383;28;20021;-33
2022/11/22 02:05:26;;;;;;;11.57;5.88;;;;;;;-143.48;95.93;77657.22;5055828;28;20113;-34
2022/11/22 02:08:04;;;;;;;16.15;6.13;;;;;;;-143.48;95.66;77661.19;5055844;28;20079;-33
2022/11/22 02:10:36;;;;;;;15.68;5.95;;;;;;;-143.48;95.58;77671.09;5055992;28;20028;-34
2022/11/22 02:13:03;;;;;;;12.40;5.95;;;;;;;-143.48;95.95;77677.06;5056237;28;20487;-35
2022/11/22 02:15:29;;;;;;;13.98;5.70;;;;;;;-143.48;95.63;77673.09;5055755;28;20025;-34
2022/11/22 02:17:57;;;;;;;15.77;5.43;;;;;;;-143.48;95.89;77690.94;5055601;28;20029;-33
2022/11/22 02:20:23;;;;;;;17.20;5.38;;;;;;;-143.48;96.06;77694.91;5055487;28;20048;-33
2022/11/22 02:23:01;;;;;;;18.20;5.63;;;;;;;-143.48;96.06;77698.88;5055267;28;20021;-33
2022/11/22 02:25:39;;;;;;;14.15;5.13;;;;;;;-143.48;96.02;77696.88;5055004;28;20028;-33
2022/11/22 02:28:05;;;;;;;13.77;5.13;;;;;;;-143.48;95.98;77696.88;5053270;28;20028;-34
2022/11/22 02:30:30;;;;;;;14.20;5.93;;;;;;;-143.48;96.01;77698.88;5053286;28;20024;-33
2022/11/22 02:32:55;;;;;;;13.13;5.80;;;;;;;-143.48;95.93;77708.78;5053180;28;20050;-34
2022/11/22 02:35:24;;;;;;;12.43;5.78;;;;;;;-143.48;95.91;77714.72;5053345;28;20039;-33
2022/11/22 02:38:06;;;;;;;15.05;5.88;;;;;;;-143.48;96.03;77710.75;5035242;28;20025;-33
2022/11/22 02:40:48;;;;;;;16.45;5.40;;;;;;;-143.48;95.62;77708.78;5053586;28;20118;-34
2022/11/22 02:43:17;;;;;;;23.55;5.57;;;;;;;-143.48;95.56;77702.84;5037726;28;20162;-33
2022/11/22 02:45:43;;;;;;;15.70;5.60;;;;;;;-143.48;95.42;77700.84;5055048;28;20056;-33
2022/11/22 02:48:15;;;;;;;15.82;5.88;;;;;;;-143.48;95.08;77698.88;5054999;28;20478;-33
2022/11/22 02:50:40;;;;;;;11.77;4.57;;;;;;;-143.48;95.03;77706.78;5054981;28;20021;-34
2022/11/22 02:53:07;;;;;;;17.15;5.00;;;;;;;-143.48;95.13;77718.69;5037035;28;20597;-34
2022/11/22 02:55:33;;;;;;;15.23;4.28;;;;;;;-143.48;95.04;77716.72;5055172;28;20017;-33
2022/11/22 02:57:58;;;;;;;20.45;4.97;;;;;;;-143.48;95.44;77714.72;5054794;28;20025;-33
2022/11/22 03:00:24;;;;;;;12.60;4.38;;;;;;;-143.48;95.18;77714.72;5054672;28;20036;-33
2022/11/22 03:02:49;;;;;;;12.63;4.50;;;;;;;-143.48;94.91;77722.66;5054679;28;20036;-34
2022/11/22 03:05:15;;;;;;;18.50;4.63;;;;;;;-143.48;95.06;77734.56;5054662;28;20108;-33
2022/11/22 03:07:40;;;;;;;11.88;4.50;;;;;;;-143.48;95.18;77738.53;5054739;28;20029;-34
2022/11/22 03:10:05;;;;;;;17.67;5.20;;;;;;;-143.48;94.70;77740.50;5054743;28;20060;-34
2022/11/22 03:12:31;;;;;;;17.48;4.47;;;;;;;-143.48;94.88;77744.47;5054754;28;20039;-34
2022/11/22 03:14:56;;;;;;;11.93;4.22;;;;;;;-143.48;94.88;77746.44;5054375;28;20025;-33
2022/11/22 03:17:21;;;;;;;19.48;4.00;;;;;;;-143.48;94.72;77754.38;5054331;28;20025;-34
2022/11/22 03:19:47;;;;;;;22.48;4.15;;;;;;;-143.48;94.53;77756.38;5054031;28;20088;-33
2022/11/22 03:22:12;;;;;;;11.43;3.70;;;;;;;-143.48;94.77;77760.34;5054916;28;20099;-33
2022/11/22 03:24:38;;;;;;;15.48;3.72;;;;;;;-143.48;94.55;77760.34;5054247;28;20024;-34
2022/11/22 03:27:03;;;;;;;15.48;3.75;;;;;;;-143.48;94.41;77766.28;5054523;28;20032;-33
2022/11/22 03:29:28;;;;;;;18.92;3.70;;;;;;;-143.48;94.15;77754.38;5054117;28;20502;-34
2022/11/22 03:31:53;;;;;;;17.52;3.78;;;;;;;-143.48;94.00;77754.38;5054066;28;20036;-33
2022/11/22 03:34:19;;;;;;;17.98;3.22;;;;;;;-143.48;93.57;77774.22;5054196;28;20029;-34
2022/11/22 03:36:44;;;;;;;11.38;3.42;;;;;;;-143.48;93.65;77776.19;5054023;28;20528;-32
2022/11/22 03:39:09;;;;;;;17.88;3.70;;;;;;;-143.48;93.53;77778.19;5054261;28;20040;-34
2022/11/22 03:41:35;;;;;;;16.83;3.13;;;;;;;-143.48;93.56;77778.19;5053888;28;20086;-34
2022/11/22 03:44:00;;;;;;;17.55;3.33;;;;;;;-143.48;93.26;77776.19;5053869;28;20388;-33
2022/11/22 03:46:25;;;;;;;16.60;3.22;;;;;;;-143.48;93.01;77780.16;5053798;28;20079;-33
2022/11/22 03:48:50;;;;;;;15.20;2.67;;;;;;;-143.48;92.70;77778.19;5053865;28;20127;-34
2022/11/22 03:51:16;;;;;;;21.27;3.53;;;;;;;-143.48;92.62;77782.16;5054395;28;20028;-33
2022/11/22 03:53:41;;;;;;;10.10;3.45;;;;;;;-143.48;92.79;77790.06;5053668;28;20028;-33
2022/11/22 03:56:07;;;;;;;18.23;3.20;;;;;;;-143.48;93.04;77801.97;5054255;28;20456;-34
2022/11/22 03:58:32;;;;;;;15.63;3.25;;;;;;;-143.48;92.81;77803.97;5053114;28;20521;-33
2022/11/22 04:00:58;;;;;;;20.48;3.53;;;;;;;-143.48;92.76;77807.94;5051868;28;20029;-33
2022/11/22 04:03:24;;;;;;;14.13;3.33;;;;;;;-143.48;93.04;77811.88;5052024;28;20032;-33
2022/11/22 04:05:49;;;;;;;14.68;3.00;;;;;;;-143.48;92.79;77817.84;5052460;28;20426;-34
2022/11/22 04:08:14;;;;;;;14.20;2.92;;;;;;;-143.48;92.83;77815.84;5052160;28;20079;-33
2022/11/22 04:10:40;;;;;;;16.33;2.78;;;;;;;-143.48;92.81;77817.84;5053107;28;20048;-34
2022/11/22 04:13:05;;;;;;;11.65;2.70;;;;;;;-143.48;92.81;77837.66;5051324;28;20376;-33
2022/11/22 04:15:31;;;;;;;13.55;2.75;;;;;;;-143.48;92.40;77833.69;5051144;28;20111;-34
2022/11/22 04:17:56;;;;;;;15.38;3.58;;;;;;;-143.48;92.82;77837.66;5051216;28;20094;-33
2022/11/22 04:23:18;;;;;;;11.65;2.70;;;;;;;-143.48;92.25;77829.75;5051242;28;20035;-33
2022/11/22 04:25:48;;;;;;;17.65;3.40;;;;;;;-143.48;92.56;77837.66;5051135;28;20040;-34
2022/11/22 04:28:16;;;;;;;12.38;2.75;;;;;;;-143.48;92.19;77837.66;5053202;28;20064;-34
2022/11/22 04:33:26;;;;;;;11.95;2.67;;;;;;;-143.48;92.45;77849.56;5053784;28;20055;-33
2022/11/22 04:35:52;;;;;;;17.92;3.28;;;;;;;-143.48;92.60;77851.56;5053641;28;20020;-33
2022/11/22 04:38:17;;;;;;;16.30;2.97;;;;;;;-143.48;92.66;77859.47;5053120;28;20083;-33
2022/11/22 04:40:43;;;;;;;15.60;2.70;;;;;;;-143.48;92.10;77855.50;5053295;28;20029;-33
2022/11/22 04:46:01;;;;;;;13.40;2.80;;;;;;;-143.48;92.52;77861.47;5053437;28;20507;-33
2022/11/22 04:48:26;;;;;;;16.38;3.60;;;;;;;-143.48;92.43;77865.44;5053249;28;20460;-33
2022/11/22 04:53:36;;;;;;;15.18;2.92;;;;;;;-143.48;91.94;77879.31;5053146;28;20162;-33
2022/11/22 04:56:01;;;;;;;14.52;2.90;;;;;;;-143.48;92.24;77893.19;5053283;28;20049;-33
2022/11/22 04:58:26;;;;;;;15.02;2.72;;;;;;;-143.48;92.39;77891.22;5055057;28;20412;-33
2022/11/22 05:00:51;;;;;;;15.93;2.85;;;;;;;-143.48;92.19;77897.16;5055201;28;20028;-34
2022/11/22 05:03:17;;;;;;;15.27;3.30;;;;;;;-143.48;92.28;77899.13;5055181;28;20024;-33
2022/11/22 05:05:43;;;;;;;20.10;2.90;;;;;;;-143.48;92.47;77899.13;5055030;28;20120;-33
2022/11/22 05:08:09;;;;;;;14.63;2.65;;;;;;;-143.48;92.66;77911.03;5055224;28;20021;-33
2022/11/22 05:13:31;;;;;;;10.68;2.72;;;;;;;-143.48;92.55;77901.13;5056144;28;20511;-33
2022/11/22 05:15:57;;;;;;;13.85;2.78;;;;;;;-143.48;91.85;77915.00;5056641;28;20047;-34
2022/11/22 05:18:24;;;;;;;19.85;3.38;;;;;;;-143.48;91.98;77920.94;5057344;28;20025;-33
2022/11/22 05:20:49;;;;;;;16.42;2.80;;;;;;;-143.48;91.95;77926.91;5056328;28;20056;-34
2022/11/22 05:25:59;;;;;;;14.65;2.42;;;;;;;-143.48;91.76;77924.91;5056855;28;20051;-34
2022/11/22 05:28:29;;;;;;;10.63;2.53;;;;;;;-143.48;91.90;77930.88;5056542;28;20029;-33
2022/11/22 05:30:55;;;;;;;13.13;2.75;;;;;;;-143.48;91.62;77924.91;5056719;28;20024;-34
2022/11/22 05:33:21;;;;;;;13.73;2.88;;;;;;;-143.48;91.40;77938.81;5056498;28;20365;-33
2022/11/22 05:35:46;;;;;;;12.70;2.60;;;;;;;-143.48;91.33;77932.84;5056967;28;20142;-34
2022/11/22 05:38:11;;;;;;;11.57;2.38;;;;;;;-143.48;91.31;77944.75;5056610;28;20099;-34
2022/11/22 05:40:36;;;;;;;15.73;2.80;;;;;;;-143.48;91.37;77950.69;5056262;28;20092;-33
2022/11/22 05:43:02;;;;;;;18.88;3.17;;;;;;;-143.48;91.39;77954.66;5056454;28;20083;-38
2022/11/22 05:45:27;;;;;;;16.60;2.50;;;;;;;-143.48;91.08;77950.69;5056479;28;20024;-34
2022/11/22 05:47:52;;;;;;;14.55;2.45;;;;;;;-143.48;90.83;77948.72;5056454;28;20044;-33
2022/11/22 05:50:17;;;;;;;23.40;2.90;;;;;;;-143.48;90.84;77944.75;5056717;28;20412;-34
2022/11/22 05:52:43;;;;;;;8.43;2.10;;;;;;;-143.48;90.56;77942.78;5056483;28;20033;-34
2022/11/22 05:55:08;;;;;;;12.55;2.47;;;;;;;-143.48;90.04;77940.78;5056322;28;20384;-34
2022/11/22 05:57:34;;;;;;;11.27;2.30;;;;;;;-143.48;89.83;77930.88;5056196;28;20025;-33
2022/11/22 05:59:59;;;;;;;10.23;2.50;;;;;;;-143.48;89.23;77924.91;5056120;28;20024;-34
2022/11/22 06:02:24;;;;;;;14.80;2.50;;;;;;;-143.48;89.19;77905.09;5055866;28;20532;-33
2022/11/22 06:04:50;;;;;;;15.13;2.35;;;;;;;-143.48;89.11;77913.03;5056145;28;20036;-34
2022/11/22 06:07:15;;;;;;;11.35;2.70;;;;;;;-143.48;89.08;77907.06;5056733;28;20021;-33
2022/11/22 06:09:40;;;;;;;14.85;2.70;;;;;;;-143.48;88.68;77903.09;5055989;28;20060;-34
2022/11/22 06:12:06;;;;;;;10.35;2.97;;;;;;;-143.48;88.68;77907.06;5055995;28;20090;-34
2022/11/22 06:14:31;;;;;;;10.13;2.90;;;;;;;-143.48;88.90;77909.06;5055937;28;20029;-34
2022/11/22 06:16:57;;;;;;;9.00;2.97;;;;;;;-143.48;88.57;77903.09;5055645;28;20040;-34
2022/11/22 06:19:22;;;;;;;13.43;3.30;;;;;;;-143.48;88.25;77901.13;5037449;28;20063;-33
2022/11/22 06:21:47;;;;;;;14.40;3.88;;;;;;;-143.48;88.33;77893.19;5055789;28;20039;-33
2022/11/22 06:24:12;;;;;;;11.40;3.30;;;;;;;-143.48;88.12;77895.19;5055474;28;20037;-32
2022/11/22 06:26:38;;;;;;;11.75;3.70;;;;;;;-143.48;88.01;77889.22;5055243;28;20391;-33
2022/11/22 06:29:03;;;;;;;15.90;3.55;;;;;;;-143.48;87.96;77891.22;5055709;28;20074;-34
2022/11/22 06:31:28;;;;;;;12.32;3.83;;;;;;;-143.48;88.76;77897.16;5055284;28;20094;-32
2022/11/22 06:33:56;;;;;;;17.63;3.58;;;;;;;-143.48;88.33;77893.19;5055474;28;20086;-32
2022/11/22 06:36:27;;;;;;;14.65;3.42;;;;;;;-143.48;88.92;77893.19;5055517;28;20070;-32
2022/11/22 06:38:52;;;;;;;15.68;4.22;;;;;;;-143.48;88.84;77905.09;5055106;28;20036;-32
2022/11/22 06:41:26;;;;;;;12.95;3.53;;;;;;;-143.48;89.17;77901.13;5055358;28;20025;-32
2022/11/22 06:43:53;;;;;;;14.25;3.10;;;;;;;-143.48;88.86;77899.13;5055717;28;20047;-32
2022/11/22 06:46:21;;;;;;;12.98;4.10;;;;;;;-143.48;88.70;77907.06;5055595;28;20048;-32
2022/11/22 06:48:46;;;;;;;15.00;3.83;;;;;;;-143.48;89.10;77917.00;5054963;28;20028;-32
2022/11/22 06:51:24;;;;;;;12.98;3.55;;;;;;;-143.48;88.99;77915.00;5055325;28;20075;-34
2022/11/22 06:53:50;;;;;;;16.67;3.85;;;;;;;-143.48;88.85;77915.00;5054947;28;20029;-34
2022/11/22 06:56:24;;;;;;;8.77;3.50;;;;;;;-143.48;89.31;77920.94;5054823;28;20025;-33
2022/11/22 06:58:51;;;;;;;12.85;3.25;;;;;;;-143.48;89.06;77909.06;5055346;28;20017;-34
2022/11/22 07:01:20;;;;;;;15.40;4.40;;;;;;;-143.48;88.48;77924.91;5054965;28;20074;-34
2022/11/22 07:03:46;;;;;;;15.05;4.15;;;;;;;-143.48;88.91;77907.06;5054831;28;20024;-35
2022/11/22 07:06:14;;;;;;;13.73;4.00;;;;;;;-143.48;88.59;77901.13;5055009;28;20422;-34
2022/11/22 07:08:40;;;;;;;13.13;4.30;;;;;;;-143.48;88.25;77897.16;5053510;28;20102;-33
2022/11/22 07:11:11;;;;;;;10.68;3.95;;;;;;;-143.48;88.22;77909.06;5052666;28;20036;-34
2022/11/22 07:13:37;;;;;;;13.90;3.85;;;;;;;-143.48;88.61;77899.13;5053138;28;20361;-34
2022/11/22 07:16:05;;;;;;;11.45;3.80;;;;;;;-143.48;87.99;77897.16;5053167;28;20028;-34
2022/11/22 07:18:31;;;;;;;14.05;3.90;;;;;;;-143.48;87.87;77911.03;5052669;28;20067;-34
2022/11/22 07:21:08;;;;;;;7.75;3.33;;;;;;;-143.48;87.74;77913.03;5052100;28;20048;-35
2022/11/22 07:23:33;;;;;;;9.05;3.75;;;;;;;-143.48;87.36;77917.00;5052237;28;20056;-34
2022/11/22 07:25:59;;;;;;;11.65;3.80;;;;;;;-143.48;87.38;77924.91;5051918;28;20017;-34
2022/11/22 07:28:24;;;;;;;17.98;3.95;;;;;;;-143.48;87.20;77932.84;5052056;28;20414;-35
2022/11/22 07:30:50;;;;;;;19.20;3.92;;;;;;;-143.48;87.12;77920.94;5033998;28;20075;-34
2022/11/22 07:33:16;;;;;;;15.32;4.32;;;;;;;-143.48;87.34;77917.00;5050521;28;20021;-33
2022/11/22 07:35:44;;;;;;;8.13;3.42;;;;;;;-143.48;87.60;77932.84;5051937;28;20028;-34
2022/11/22 07:38:09;;;;;;;15.55;3.72;;;;;;;-143.48;87.52;77917.00;5052740;28;20056;-35
2022/11/22 07:40:35;;;;;;;23.38;3.67;;;;;;;-143.48;87.73;77909.06;5052966;28;20053;-34
2022/11/22 07:43:00;;;;;;;11.85;3.05;;;;;;;-143.48;87.18;77909.06;5035848;28;20028;-34
2022/11/22 07:45:25;;;;;;;12.73;3.42;;;;;;;-143.48;87.10;77911.03;5053555;28;20032;-34
2022/11/22 07:47:51;;;;;;;9.48;3.30;;;;;;;-143.48;87.20;77901.13;5053933;28;20234;-35
2022/11/22 07:50:16;;;;;;;11.18;3.17;;;;;;;-143.48;86.78;77895.19;5053731;28;20024;-40
2022/11/22 07:52:41;;;;;;;11.45;3.13;;;;;;;-143.48;86.85;77911.03;5053534;28;20029;-34
2022/11/22 07:55:07;;;;;;;14.70;4.38;;;;;;;-143.48;87.10;77913.03;5053303;28;20090;-34
2022/11/22 07:57:33;;;;;;;11.52;3.88;;;;;;;-143.48;87.27;77907.06;5053700;28;20025;-34
2022/11/22 07:59:58;;;;;;;14.30;3.15;;;;;;;-143.48;87.05;77889.22;5053272;28;20491;-34
2022/11/22 08:02:24;;;;;;;9.57;3.08;;;;;;;-143.48;87.01;77907.06;5053598;28;20031;-34
2022/11/22 08:04:50;;;;;;;9.20;2.75;;;;;;;-143.48;87.05;77893.19;5053049;28;20376;-34
2022/11/22 08:07:16;;;;;;;8.50;2.80;;;;;;;-143.48;86.45;77907.06;5053592;28;20375;-36
2022/11/22 08:09:41;;;;;;;12.15;3.80;;;;;;;-143.48;86.70;77903.09;5035989;28;20587;-34
2022/11/22 08:12:07;;;;;;;17.17;3.22;;;;;;;-143.48;86.46;77917.00;5053714;28;20027;-34
2022/11/22 08:14:33;;;;;;;8.77;2.67;;;;;;;-143.48;86.81;77905.09;5053276;28;20047;-32
2022/11/22 08:16:58;;;;;;;6.68;2.85;;;;;;;-143.48;86.10;77901.13;5051850;28;20058;-34
2022/11/22 08:19:24;;;;;;;10.02;2.70;;;;;;;-143.48;86.27;77909.06;5050191;28;20105;-34
2022/11/22 08:21:49;;;;;;;10.05;2.72;;;;;;;-143.48;85.99;77901.13;5051078;28;20075;-33
2022/11/22 08:24:15;;;;;;;9.45;3.03;;;;;;;-143.48;85.99;77901.13;5051049;28;20112;-34
2022/11/22 08:26:41;;;;;;;11.23;2.90;;;;;;;-143.48;85.73;77911.03;5050915;28;20430;-34
2022/11/22 08:29:10;;;;;;;7.43;2.42;;;;;;;-143.48;85.33;77885.25;5051382;28;20652;-34
2022/11/22 08:31:36;;;;;;;10.23;2.63;;;;;;;-143.48;85.43;77889.22;5051078;28;20021;-34
2022/11/22 08:34:01;;;;;;;13.95;2.80;;;;;;;-143.48;84.94;77889.22;5053177;28;20072;-34
2022/11/22 08:36:27;;;;;;;10.30;2.92;;;;;;;-143.48;85.21;77889.22;5053380;28;20028;-34
2022/11/22 08:38:52;;;;;;;8.82;2.80;;;;;;;-143.48;85.51;77891.22;5053221;28;20017;-34
2022/11/22 08:41:18;;;;;;;14.30;3.60;;;;;;;-143.48;85.10;77889.22;5053214;28;20464;-35
2022/11/22 08:43:43;;;;;;;9.90;3.10;;;;;;;-143.48;84.45;77865.44;5052063;28;20445;-34
2022/11/22 08:46:09;;;;;;;10.23;3.00;;;;;;;-143.48;84.55;77869.41;5052146;28;20039;-33
2022/11/22 08:48:36;;;;;;;11.98;2.80;;;;;;;-143.48;83.57;77877.31;5053314;28;20016;-34
2022/11/22 08:51:04;;;;;;;8.85;2.78;;;;;;;-143.48;84.13;77873.38;5052804;28;20025;-34
2022/11/22 08:53:38;;;;;;;7.75;2.85;;;;;;;-143.48;84.00;77887.25;5052929;28;20032;-35
2022/11/22 08:56:05;;;;;;;12.90;3.10;;;;;;;-143.48;84.61;77895.19;5052868;28;20025;-34
2022/11/22 08:58:32;;;;;;;9.93;2.92;;;;;;;-143.48;84.50;77879.31;5052788;28;20037;-34
2022/11/22 09:01:08;;;;;;;7.15;2.90;;;;;;;-143.48;84.14;77887.25;5053137;28;20120;-34
2022/11/22 09:03:34;;;;;;;13.25;2.90;;;;;;;-143.48;83.05;77877.31;5052844;28;20516;-34
2022/11/22 09:06:05;;;;;;;13.48;3.20;;;;;;;-143.48;83.22;77883.28;5052889;28;20504;-34
2022/11/22 09:08:32;;;;;;;14.60;3.00;;;;;;;-143.48;83.14;77875.34;5052712;28;20024;-34
2022/11/22 09:11:01;;;;;;;7.05;2.83;;;;;;;-143.48;82.37;77871.38;5052533;28;20021;-34
2022/11/22 09:13:28;;;;;;;9.25;2.90;;;;;;;-143.48;82.33;77877.31;5052407;28;20542;-34
2022/11/22 09:15:53;;;;;;;12.45;3.30;;;;;;;-143.48;81.73;77879.31;5052780;28;20098;-33
2022/11/22 09:18:19;;;;;;;9.43;2.90;;;;;;;-143.48;82.01;77891.22;5052802;28;20033;-34
2022/11/22 09:20:44;;;;;;;10.27;3.40;;;;;;;-143.48;81.65;77873.38;5052587;28;20439;-34
2022/11/22 09:23:09;;;;;;;9.60;3.20;;;;;;;-143.48;82.09;77881.28;5052983;28;20049;-34
2022/11/22 09:25:35;;;;;;;8.23;3.10;;;;;;;-143.48;81.93;77895.19;5052774;28;20031;-34
2022/11/22 09:28:03;;;;;;;7.85;2.78;;;;;;;-143.48;82.04;77897.16;5052964;28;20047;-34
2022/11/22 09:30:29;;;;;;;13.35;2.70;;;;;;;-143.48;82.33;77891.22;5052645;28;20021;-34
2022/11/22 09:32:54;;;;;;;12.07;3.08;;;;;;;-143.48;82.76;77883.28;5052502;28;20055;-33
2022/11/22 09:35:20;;;;;;;6.47;2.67;;;;;;;-143.48;81.94;77879.31;5052563;28;20029;-33
2022/11/22 09:37:46;;;;;;;8.10;2.60;;;;;;;-143.48;81.73;77871.38;5052519;28;20357;-34
2022/11/22 09:40:12;;;;;;;12.35;3.00;;;;;;;-143.48;81.77;77873.38;5052400;28;20426;-33
2022/11/22 09:42:40;;;;;;;9.18;3.00;;;;;;;-143.48;82.30;77879.31;5052698;28;20119;-34
2022/11/22 09:45:32;;;;;;;9.68;3.10;;;;;;;-143.48;81.86;77891.22;5056054;28;20025;-33
2022/11/22 09:48:11;;;;;;;11.30;2.90;;;;;;;-143.48;82.22;77883.28;5056159;28;20028;-34
2022/11/22 09:50:56;;;;;;;10.07;2.72;;;;;;;-143.48;82.33;77883.28;5056018;28;20032;-34
2022/11/22 09:53:29;;;;;;;12.07;3.03;;;;;;;-143.48;81.96;77873.38;5055829;28;20036;-34
2022/11/22 09:56:01;;;;;;;9.52;2.67;;;;;;;-143.48;81.08;77853.53;5055705;28;20021;-34
2022/11/22 09:58:51;;;;;;;7.95;2.70;;;;;;;-143.48;81.36;77863.44;5055721;28;20051;-34
2022/11/22 10:01:26;;;;;;;7.30;2.80;;;;;;;-143.48;80.55;77845.59;5056263;28;20035;-34
2022/11/22 10:04:08;;;;;;;8.30;2.65;;;;;;;-143.48;80.20;77833.69;5056106;28;20021;-34
2022/11/22 10:06:39;;;;;;;13.23;2.80;;;;;;;-143.48;80.64;77839.66;5056054;28;20476;-34
2022/11/22 10:09:26;;;;;;;8.75;2.70;;;;;;;-143.48;80.55;77841.63;5055791;28;20020;-34
2022/11/22 10:12:24;;;;;;;10.52;3.00;;;;;;;-143.48;80.11;77831.72;5055495;28;20048;-34
2022/11/22 10:15:06;;;;;;;10.82;3.00;;;;;;;-143.48;80.48;77841.63;5020857;28;20049;-33
2022/11/22 10:17:52;;;;;;;17.30;2.67;;;;;;;-143.48;79.62;77819.81;5053497;28;20028;-33
2022/11/22 10:20:20;;;;;;;7.95;2.60;;;;;;;-143.48;80.00;77837.66;5053264;28;20084;-34
2022/11/22 10:22:47;;;;;;;9.75;2.47;;;;;;;-143.48;80.27;77829.75;5053286;28;20029;-33
2022/11/22 10:25:17;;;;;;;11.32;2.45;;;;;;;-143.48;80.22;77827.75;5053513;28;20483;-33
2022/11/22 10:27:46;;;;;;;9.15;2.70;;;;;;;-143.48;80.37;77841.63;5053296;28;20147;-33
2022/11/22 10:30:15;;;;;;;8.65;2.58;;;;;;;-143.48;80.93;77829.75;5053278;28;20024;-33
2022/11/22 10:33:06;;;;;;;5.85;2.30;;;;;;;-143.48;80.61;77839.66;5054053;28;20430;-33
2022/11/22 10:36:04;;;;;;;6.75;2.40;;;;;;;-143.48;81.08;77847.59;5053471;28;20032;-33
2022/11/22 10:38:51;;;;;;;11.18;3.05;;;;;;;-143.48;80.87;77811.88;5054692;28;20021;-34
2022/11/22 10:41:35;;;;;;;8.88;2.70;;;;;;;-143.48;80.54;77829.75;5053598;28;20682;-33
2022/11/22 10:44:13;;;;;;;8.57;1.92;;;;;;;-143.48;80.07;77837.66;5053117;28;20472;-33
2022/11/22 10:47:09;;;;;;;8.85;2.85;;;;;;;-143.48;80.26;77831.72;5052329;28;20049;-32
2022/11/22 10:49:59;;;;;;;15.48;3.58;;;;;;;-143.48;80.10;77821.81;5050447;28;20029;-33
2022/11/22 10:52:54;;;;;;;7.13;2.10;;;;;;;-143.48;80.18;77805.94;5034183;28;20167;-33
2022/11/22 10:55:55;;;;;;;7.90;2.40;;;;;;;-143.48;79.83;77823.78;5051093;28;20361;-34
2022/11/22 10:58:29;;;;;;;7.10;2.28;;;;;;;-143.48;79.71;77809.91;5052784;28;20025;-34
2022/11/22 11:01:17;;;;;;;11.65;2.90;;;;;;;-143.48;80.31;77809.91;5051348;28;20039;-33
2022/11/22 11:03:44;;;;;;;4.65;2.33;;;;;;;-143.48;80.12;77809.91;5054502;28;20126;-35
2022/11/22 11:06:16;;;;;;;4.95;2.50;;;;;;;-143.48;79.86;77805.94;5053818;28;20078;-35
2022/11/22 11:08:49;;;;;;;7.18;2.35;;;;;;;-143.48;79.84;77794.03;5054084;28;20033;-34
2022/11/22 11:11:15;;;;;;;8.98;2.60;;;;;;;-143.48;79.43;77792.06;5036029;28;20082;-35
2022/11/22 11:13:51;;;;;;;5.13;2.50;;;;;;;-143.48;79.53;77794.03;5053823;28;20016;-34
2022/11/22 11:16:24;;;;;;;9.48;2.92;;;;;;;-143.48;79.79;77778.19;5054227;28;20131;-34
2022/11/22 11:19:10;;;;;;;12.90;2.78;;;;;;;-143.48;79.27;77786.13;5054362;28;20028;-31
2022/11/22 11:21:36;;;;;;;8.85;2.80;;;;;;;-143.48;79.06;77766.28;5053958;28;20083;-31
2022/11/22 11:24:02;;;;;;;10.13;3.05;;;;;;;-143.48;79.07;77762.31;5053928;28;20029;-31
2022/11/22 11:26:30;;;;;;;6.03;2.65;;;;;;;-143.48;79.03;77762.31;5054250;28;20017;-31
2022/11/22 11:29:17;;;;;;;7.72;2.60;;;;;;;-143.48;79.38;77764.31;5054211;28;20460;-30
2022/11/22 11:31:50;;;;;;;6.15;2.35;;;;;;;-143.48;79.43;77772.22;5054300;28;20024;-30
2022/11/22 11:34:15;;;;;;;;;;;;;;;-143.48;79.48;77764.31;5054141;28;20052;-30